| time (UTC) | temp F | wind direction | speed knots | gust knots | rain 1hr in | rain 24hr in | rain mn in | humidity % | barometer mb |
| 20260510220229 | 86 | 277 | 1.7 | 1.7 | 0.00 | 0.30 | 0.30 | 67 | 1015.8 |
| 20260510215726 | 86 | 205 | 1.7 | 2.6 | 0.00 | 0.30 | 0.30 | 68 | 1015.8 |
| 20260510215224 | 87 | 261 | 1.7 | 1.7 | 0.00 | 0.30 | 0.30 | 67 | 1015.8 |
| 20260510214721 | 87 | 301 | 0.9 | 1.7 | 0.00 | 0.30 | 0.30 | 66 | 1016.0 |
| 20260510214218 | 87 | 195 | 1.7 | 2.6 | 0.00 | 0.30 | 0.30 | 66 | 1015.9 |
| 20260510213715 | 87 | 260 | 2.6 | 3.5 | 0.00 | 0.30 | 0.30 | 67 | 1015.9 |
| 20260510213211 | 87 | 274 | 1.7 | 2.6 | 0.00 | 0.30 | 0.30 | 68 | 1015.8 |
| 20260510212707 | 86 | 226 | 3.5 | 3.5 | 0.00 | 0.30 | 0.30 | 68 | 1016.1 |
| 20260510212205 | 86 | 250 | 1.7 | 1.7 | 0.00 | 0.30 | 0.30 | 68 | 1016.3 |
| 20260510211701 | 86 | 289 | 1.7 | 2.6 | 0.00 | 0.30 | 0.30 | 70 | 1016.0 |
| 20260510211156 | 85 | 225 | 2.6 | 2.6 | 0.00 | 0.30 | 0.30 | 71 | 1016.1 |
| 20260510210653 | 85 | 239 | 0.9 | 0.9 | 0.00 | 0.30 | 0.30 | 74 | 1016.1 |
| 20260510210148 | 85 | 255 | 1.7 | 1.7 | 0.00 | 0.30 | 0.30 | 72 | 1016.2 |
| 20260510205648 | 85 | 220 | 1.7 | 2.6 | 0.00 | 0.30 | 0.30 | 73 | 1016.0 |
| 20260510205144 | 85 | 223 | 1.7 | 3.5 | 0.00 | 0.30 | 0.30 | 69 | 1016.3 |
| 20260510204640 | 86 | 256 | 1.7 | 1.7 | 0.00 | 0.30 | 0.30 | 69 | 1016.1 |
| 20260510204137 | 85 | 208 | 2.6 | 3.5 | 0.00 | 0.30 | 0.30 | 68 | 1016.2 |
| 20260510203634 | 86 | 212 | 0.9 | 1.7 | 0.00 | 0.30 | 0.30 | 69 | 1016.2 |
| 20260510203131 | 86 | 184 | 3.5 | 5.2 | 0.00 | 0.30 | 0.30 | 69 | 1016.0 |
| 20260510202630 | 86 | 257 | 1.7 | 1.7 | 0.00 | 0.30 | 0.30 | 69 | 1016.1 |
| 20260510202126 | 86 | 296 | 1.7 | 1.7 | 0.00 | 0.30 | 0.30 | 71 | 1015.9 |
| 20260510201624 | 85 | 244 | 1.7 | 1.7 | 0.00 | 0.30 | 0.30 | 71 | 1016.2 |
| 20260510201120 | 84 | 267 | 1.7 | 2.6 | 0.00 | 0.30 | 0.30 | 72 | 1016.0 |
| 20260510200616 | 84 | 198 | 2.6 | 3.5 | 0.00 | 0.30 | 0.30 | 75 | 1015.9 |
| 20260510200115 | 84 | 214 | 5.2 | 6.1 | 0.00 | 0.30 | 0.30 | 75 | 1016.1 |
| 20260510195612 | 84 | 248 | 1.7 | 2.6 | 0.00 | 0.30 | 0.30 | 77 | 1016.0 |
| 20260510195108 | 84 | 262 | 2.6 | 3.5 | 0.00 | 0.30 | 0.30 | 76 | 1016.0 |
| 20260510194607 | 84 | 269 | 3.5 | 3.5 | 0.00 | 0.30 | 0.30 | 77 | 1016.0 |
| 20260510194104 | 83 | 278 | 1.7 | 1.7 | 0.00 | 0.30 | 0.30 | 80 | 1016.1 |
| 20260510193604 | 82 | 234 | 1.7 | 2.6 | 0.00 | 0.30 | 0.30 | 81 | 1016.1 |
| 20260510193100 | 81 | 275 | 1.7 | 1.7 | 0.00 | 0.30 | 0.30 | 86 | 1016.1 |
| 20260510192555 | 81 | 201 | 3.5 | 3.5 | 0.00 | 0.30 | 0.30 | 87 | 1016.0 |
| 20260510192051 | 79 | 203 | 2.6 | 2.6 | 0.00 | 0.30 | 0.30 | 88 | 1016.1 |
| 20260510191548 | 77 | 182 | 0.9 | 1.7 | 0.00 | 0.30 | 0.30 | 91 | 1016.2 |
| 20260510191045 | 77 | 153 | 2.6 | 2.6 | 0.12 | 0.30 | 0.30 | 93 | 1016.5 |
| 20260510190542 | 77 | 101 | 0.9 | 1.7 | 0.24 | 0.30 | 0.30 | 93 | 1016.3 |
| 20260510190040 | 76 | 187 | 1.7 | 2.6 | 0.35 | 0.28 | 0.28 | 93 | 1016.4 |
| 20260510185536 | 75 | 288 | 2.6 | 2.6 | 0.35 | 0.26 | 0.26 | 93 | 1016.5 |
| 20260510185033 | 75 | 265 | 2.6 | 2.6 | 0.35 | 0.23 | 0.23 | 94 | 1016.5 |
| 20260510184531 | 74 | 258 | 0.9 | 1.7 | 0.38 | 0.20 | 0.20 | 93 | 1016.7 |
| 20260510184026 | 74 | 254 | 1.7 | 2.6 | 0.35 | 0.17 | 0.17 | 93 | 1016.7 |
| 20260510183522 | 73 | 260 | 1.7 | 2.6 | 0.40 | 0.14 | 0.14 | 93 | 1016.9 |
| 20260510183017 | 72 | 257 | 0.9 | 0.9 | 0.38 | 0.11 | 0.11 | 94 | 1017.1 |
| 20260510182515 | 72 | 207 | 3.5 | 3.5 | 0.35 | 0.08 | 0.08 | 96 | 1017.2 |
| 20260510182014 | 74 | 201 | 8.7 | 13.9 | 0.24 | 0.04 | 0.04 | 92 | 1017.6 |
| 20260510181513 | 75 | 199 | 5.2 | 7.0 | 0.12 | 0.02 | 0.02 | 88 | 1017.2 |
| 20260510181008 | 83 | 250 | 12.2 | 14.8 | 0.00 | 0.00 | 0.00 | 75 | 1016.8 |
| 20260510180506 | 87 | 273 | 7.8 | 7.8 | 0.00 | 0.00 | 0.00 | 62 | 1016.6 |
| 20260510180003 | 90 | 273 | 4.3 | 5.2 | 0.00 | 0.00 | 0.00 | 56 | 1016.3 |
| 20260510175458 | 91 | 328 | 2.6 | 2.6 | 0.00 | 0.00 | 0.00 | 54 | 1016.1 |
| 20260510174954 | 91 | 276 | 3.5 | 5.2 | 0.00 | 0.00 | 0.00 | 54 | 1016.1 |
| 20260510174452 | 91 | 303 | 3.5 | 3.5 | 0.00 | 0.00 | 0.00 | 53 | 1016.3 |
| 20260510173949 | 92 | 318 | 3.5 | 3.5 | 0.00 | 0.00 | 0.00 | 52 | 1016.3 |
| 20260510173445 | 92 | 266 | 7.8 | 8.7 | 0.00 | 0.00 | 0.00 | 52 | 1016.4 |
| 20260510172941 | 91 | 356 | 1.7 | 2.6 | 0.00 | 0.00 | 0.00 | 53 | 1016.5 |
| 20260510172437 | 92 | 262 | 5.2 | 6.1 | 0.00 | 0.00 | 0.00 | 52 | 1016.5 |
| 20260510171934 | 90 | 285 | 3.5 | 3.5 | 0.00 | 0.00 | 0.00 | 54 | 1016.7 |
| 20260510171431 | 90 | 264 | 3.5 | 5.2 | 0.00 | 0.00 | 0.00 | 55 | 1016.8 |
| 20260510170927 | 91 | 276 | 4.3 | 6.1 | 0.00 | 0.00 | 0.00 | 54 | 1016.9 |
| 20260510170424 | 91 | 279 | 1.7 | 2.6 | 0.00 | 0.00 | 0.00 | 55 | 1017.2 |
| 20260510165920 | 91 | 292 | 2.6 | 2.6 | 0.00 | 0.00 | 0.00 | 55 | 1017.3 |
| 20260510165416 | 90 | 293 | 1.7 | 1.7 | 0.00 | 0.00 | 0.00 | 57 | 1017.3 |
| 20260510164913 | 89 | 280 | 1.7 | 1.7 | 0.00 | 0.00 | 0.00 | 57 | 1017.2 |
| 20260510164410 | 90 | 321 | 2.6 | 3.5 | 0.00 | 0.00 | 0.00 | 57 | 1017.2 |
| 20260510163905 | 89 | 279 | 2.6 | 3.5 | 0.00 | 0.00 | 0.00 | 57 | 1017.4 |
| 20260510163402 | 89 | 307 | 3.5 | 3.5 | 0.00 | 0.00 | 0.00 | 57 | 1017.5 |
| 20260510162901 | 89 | 276 | 3.5 | 5.2 | 0.00 | 0.00 | 0.00 | 56 | 1017.7 |
| 20260510162359 | 90 | 220 | 2.6 | 3.5 | 0.00 | 0.00 | 0.00 | 56 | 1017.6 |
| 20260510161854 | 89 | 221 | 3.5 | 3.5 | 0.00 | 0.00 | 0.00 | 57 | 1017.4 |
| 20260510161350 | 89 | 223 | 2.6 | 3.5 | 0.00 | 0.00 | 0.00 | 58 | 1017.6 |
| 20260510160847 | 87 | 220 | 5.2 | 6.1 | 0.00 | 0.00 | 0.00 | 60 | 1017.5 |
| 20260510160345 | 87 | 207 | 5.2 | 7.0 | 0.00 | 0.00 | 0.00 | 61 | 1017.6 |
| 20260510155838 | 89 | 260 | 3.5 | 3.5 | 0.00 | 0.00 | 0.00 | 58 | 1017.5 |
| 20260510155336 | 89 | 223 | 1.7 | 1.7 | 0.00 | 0.00 | 0.00 | 60 | 1017.4 |
| 20260510154831 | 89 | 223 | 1.7 | 1.7 | 0.00 | 0.00 | 0.00 | 60 | 1017.3 |
| 20260510154327 | 89 | 191 | 2.6 | 5.2 | 0.00 | 0.00 | 0.00 | 60 | 1017.6 |
| 20260510153822 | 89 | 197 | 4.3 | 5.2 | 0.00 | 0.00 | 0.00 | 60 | 1017.4 |
| 20260510153318 | 88 | 247 | 3.5 | 3.5 | 0.00 | 0.00 | 0.00 | 62 | 1017.4 |
| 20260510152815 | 88 | 243 | 2.6 | 3.5 | 0.00 | 0.00 | 0.00 | 62 | 1017.7 |
| 20260510152312 | 88 | 210 | 3.5 | 3.5 | 0.00 | 0.00 | 0.00 | 62 | 1017.4 |
| 20260510151808 | 88 | 213 | 6.1 | 7.8 | 0.00 | 0.00 | 0.00 | 60 | 1017.6 |
| 20260510151306 | 88 | 230 | 2.6 | 2.6 | 0.00 | 0.00 | 0.00 | 61 | 1017.6 |
| 20260510150801 | 87 | 230 | 5.2 | 6.1 | 0.00 | 0.00 | 0.00 | 63 | 1017.8 |
| 20260510150258 | 86 | 187 | 4.3 | 7.0 | 0.00 | 0.00 | 0.00 | 65 | 1017.5 |
| 20260510145754 | 86 | 222 | 5.2 | 7.0 | 0.00 | 0.00 | 0.00 | 66 | 1017.6 |
| 20260510145251 | 86 | 181 | 4.3 | 5.2 | 0.00 | 0.00 | 0.00 | 65 | 1017.4 |
| 20260510144747 | 86 | 191 | 5.2 | 6.1 | 0.00 | 0.00 | 0.00 | 66 | 1017.5 |
| 20260510144244 | 85 | 198 | 8.7 | 9.6 | 0.00 | 0.00 | 0.00 | 68 | 1017.4 |
| 20260510143743 | 85 | 212 | 6.1 | 7.0 | 0.00 | 0.00 | 0.00 | 68 | 1017.6 |
| 20260510143240 | 85 | 217 | 3.5 | 6.1 | 0.00 | 0.00 | 0.00 | 70 | 1017.5 |
| 20260510142736 | 84 | 150 | 2.6 | 3.5 | 0.00 | 0.00 | 0.00 | 70 | 1017.5 |
| 20260510142233 | 83 | 168 | 3.5 | 3.5 | 0.00 | 0.00 | 0.00 | 73 | 1017.3 |
| 20260510141731 | 83 | 199 | 0.9 | 0.9 | 0.00 | 0.00 | 0.00 | 76 | 1017.6 |
| 20260510141229 | 82 | 208 | 1.7 | 1.7 | 0.00 | 0.00 | 0.00 | 78 | 1017.5 |
| 20260510140726 | 82 | 265 | 3.5 | 5.2 | 0.00 | 0.00 | 0.00 | 79 | 1017.5 |
| 20260510140226 | 82 | 205 | 2.6 | 2.6 | 0.00 | 0.00 | 0.00 | 77 | 1017.6 |
| 20260510135720 | 81 | 196 | 2.6 | 2.6 | 0.00 | 0.00 | 0.00 | 78 | 1017.7 |
| 20260510135216 | 80 | 217 | 0.0 | 0.0 | 0.00 | 0.00 | 0.00 | 80 | 1017.4 |
| 20260510134713 | 80 | 270 | 0.9 | 0.9 | 0.00 | 0.00 | 0.00 | 81 | 1017.6 |
| 20260510134211 | 80 | 212 | 0.9 | 1.7 | 0.00 | 0.00 | 0.00 | 80 | 1017.5 |
| 20260510133706 | 80 | 271 | 0.9 | 1.7 | 0.00 | 0.00 | 0.00 | 80 | 1017.2 |
| 20260510133202 | 80 | 226 | 0.9 | 0.9 | 0.00 | 0.00 | 0.00 | 81 | 1017.1 |
| 20260510132658 | 80 | 271 | 0.0 | 0.0 | 0.00 | 0.00 | 0.00 | 81 | 1017.1 |
| 20260510132156 | 80 | 270 | 0.9 | 1.7 | 0.00 | 0.00 | 0.00 | 81 | 1017.1 |
| 20260510131653 | 79 | 268 | 3.5 | 3.5 | 0.00 | 0.00 | 0.00 | 82 | 1017.1 |
| 20260510131151 | 80 | 268 | 0.0 | 0.9 | 0.00 | 0.00 | 0.00 | 81 | 1017.2 |
| 20260510130647 | 80 | 287 | 0.9 | 0.9 | 0.00 | 0.00 | 0.00 | 82 | 1016.9 |
| 20260510130144 | 79 | 257 | 0.9 | 1.7 | 0.00 | 0.00 | 0.00 | 82 | 1016.9 |
| 20260510125640 | 79 | 262 | 0.9 | 0.9 | 0.00 | 0.00 | 0.00 | 84 | 1017.0 |
| 20260510125137 | 78 | 220 | 2.6 | 2.6 | 0.00 | 0.00 | 0.00 | 85 | 1016.7 |
| 20260510124634 | 78 | 196 | 1.7 | 2.6 | 0.00 | 0.00 | 0.00 | 86 | 1016.8 |
| 20260510124131 | 78 | 216 | 1.7 | 2.6 | 0.00 | 0.00 | 0.00 | 86 | 1016.8 |
| 20260510123626 | 77 | 213 | 3.5 | 3.5 | 0.00 | 0.00 | 0.00 | 87 | 1016.5 |
| 20260510123122 | 77 | 231 | 0.9 | 1.7 | 0.00 | 0.00 | 0.00 | 88 | 1016.7 |
| 20260510122618 | 77 | 207 | 0.9 | 1.7 | 0.00 | 0.00 | 0.00 | 89 | 1016.7 |
| 20260510122114 | 76 | 205 | 1.7 | 1.7 | 0.00 | 0.00 | 0.00 | 90 | 1016.6 |
| 20260510121612 | 76 | 196 | 2.6 | 3.5 | 0.00 | 0.00 | 0.00 | 90 | 1016.6 |
| 20260510121109 | 76 | 201 | 1.7 | 2.6 | 0.00 | 0.00 | 0.00 | 91 | 1016.5 |
| 20260510120607 | 75 | 231 | 1.7 | 2.6 | 0.00 | 0.00 | 0.00 | 91 | 1016.3 |
| 20260510115559 | 75 | 205 | 1.7 | 1.7 | 0.00 | 0.00 | 0.00 | 92 | 1016.2 |
| 20260510115056 | 74 | 184 | 0.9 | 1.7 | 0.00 | 0.00 | 0.00 | 93 | 1016.1 |
| 20260510114551 | 74 | 216 | 0.9 | 0.9 | 0.00 | 0.00 | 0.00 | 94 | 1015.8 |
| 20260510114048 | 73 | 174 | 1.7 | 1.7 | 0.00 | 0.00 | 0.00 | 95 | 1015.7 |
| 20260510113543 | 73 | 202 | 0.9 | 0.9 | 0.00 | 0.00 | 0.00 | 96 | 1015.6 |
| 20260510113041 | 73 | 188 | 0.0 | 0.0 | 0.00 | 0.00 | 0.00 | 97 | 1015.8 |
| 20260510112537 | 73 | 213 | 1.7 | 2.6 | 0.00 | 0.00 | 0.00 | 98 | 1015.7 |
| 20260510112034 | 72 | 201 | 0.9 | 1.7 | 0.00 | 0.00 | 0.00 | 98 | 1015.6 |
| 20260510111531 | 72 | 184 | 1.7 | 2.6 | 0.00 | 0.00 | 0.00 | 98 | 1015.6 |
| 20260510111026 | 72 | 210 | 0.9 | 0.9 | 0.00 | 0.00 | 0.00 | 99 | 1015.3 |
| 20260510110523 | 72 | 211 | 0.0 | 0.0 | 0.00 | 0.00 | 0.00 | 99 | 1015.3 |
| 20260510110019 | 72 | 211 | 0.0 | 0.9 | 0.00 | 0.00 | 0.00 | 99 | 1015.2 |
| 20260510105514 | 72 | 210 | 0.0 | 0.0 | 0.00 | 0.00 | 0.00 | 99 | 1015.2 |
| 20260510105009 | 72 | 212 | 0.9 | 0.9 | 0.00 | 0.00 | 0.00 | 99 | 1015.0 |
| 20260510104507 | 72 | 214 | 0.0 | 0.0 | 0.00 | 0.00 | 0.00 | 98 | 1014.9 |
| 20260510104003 | 71 | 214 | 0.0 | 0.0 | 0.00 | 0.00 | 0.00 | 98 | 1015.1 |
| 20260510103500 | 72 | 214 | 0.0 | 0.0 | 0.00 | 0.00 | 0.00 | 98 | 1014.8 |
| 20260510102955 | 72 | 214 | 0.0 | 0.0 | 0.00 | 0.00 | 0.00 | 98 | 1014.9 |
| 20260510102452 | 72 | 214 | 0.0 | 0.0 | 0.00 | 0.00 | 0.00 | 98 | 1014.9 |
| 20260510101948 | 72 | 214 | 0.0 | 0.0 | 0.00 | 0.00 | 0.00 | 98 | 1014.9 |
| 20260510101446 | 72 | 214 | 0.0 | 0.0 | 0.00 | 0.00 | 0.00 | 97 | 1014.9 |
| 20260510100944 | 72 | 214 | 0.0 | 0.0 | 0.00 | 0.00 | 0.00 | 97 | 1014.5 |
| 20260510100440 | 72 | 214 | 0.0 | 0.0 | 0.00 | 0.00 | 0.00 | 97 | 1014.3 |
| 20260510095937 | 73 | 214 | 0.0 | 0.0 | 0.00 | 0.00 | 0.00 | 97 | 1014.4 |
| 20260510095432 | 73 | 214 | 0.0 | 0.0 | 0.00 | 0.00 | 0.00 | 97 | 1014.3 |
| 20260510094931 | 73 | 214 | 0.0 | 0.0 | 0.00 | 0.00 | 0.00 | 97 | 1014.3 |
| 20260510094426 | 73 | 214 | 0.0 | 0.0 | 0.00 | 0.00 | 0.00 | 97 | 1014.3 |
| 20260510093923 | 73 | 214 | 0.0 | 0.0 | 0.00 | 0.00 | 0.00 | 96 | 1014.4 |
| 20260510093418 | 73 | 214 | 0.0 | 0.0 | 0.00 | 0.00 | 0.00 | 96 | 1014.3 |
| 20260510092915 | 73 | 214 | 0.0 | 0.0 | 0.00 | 0.00 | 0.00 | 95 | 1014.3 |
| 20260510092413 | 74 | 214 | 0.0 | 0.0 | 0.00 | 0.00 | 0.00 | 95 | 1014.3 |
| 20260510091912 | 74 | 155 | 0.0 | 0.0 | 0.00 | 0.00 | 0.00 | 95 | 1014.4 |
| 20260510091410 | 74 | 193 | 0.0 | 0.0 | 0.00 | 0.00 | 0.00 | 95 | 1014.4 |
| 20260510090906 | 74 | 194 | 0.0 | 0.0 | 0.00 | 0.00 | 0.00 | 95 | 1014.3 |
| 20260510090403 | 74 | 194 | 0.0 | 0.0 | 0.00 | 0.00 | 0.00 | 95 | 1014.2 |
| 20260510085859 | 74 | 206 | 0.9 | 0.9 | 0.00 | 0.00 | 0.00 | 95 | 1014.1 |
| 20260510085354 | 74 | 178 | 0.9 | 1.7 | 0.00 | 0.00 | 0.00 | 95 | 1014.1 |
| 20260510084849 | 74 | 182 | 1.7 | 1.7 | 0.00 | 0.00 | 0.00 | 95 | 1014.1 |
| 20260510084347 | 74 | 204 | 0.9 | 0.9 | 0.00 | 0.00 | 0.00 | 95 | 1014.0 |
| 20260510083844 | 74 | 95 | 1.7 | 1.7 | 0.00 | 0.00 | 0.00 | 95 | 1013.8 |
| 20260510083340 | 73 | 206 | 0.0 | 0.0 | 0.00 | 0.00 | 0.00 | 95 | 1013.7 |
| 20260510082835 | 73 | 181 | 0.0 | 0.9 | 0.00 | 0.00 | 0.00 | 95 | 1013.8 |
| 20260510082333 | 73 | 210 | 0.0 | 0.0 | 0.00 | 0.00 | 0.00 | 95 | 1013.8 |
| 20260510081832 | 73 | 201 | 0.0 | 0.0 | 0.00 | 0.00 | 0.00 | 96 | 1014.0 |
| 20260510081328 | 73 | 205 | 0.0 | 0.9 | 0.00 | 0.00 | 0.00 | 96 | 1014.0 |
| 20260510080824 | 73 | 198 | 0.9 | 1.7 | 0.00 | 0.00 | 0.00 | 96 | 1013.9 |
| 20260510080319 | 73 | 113 | 0.9 | 0.9 | 0.00 | 0.00 | 0.00 | 96 | 1014.0 |
| 20260510075817 | 73 | 156 | 1.7 | 1.7 | 0.00 | 0.00 | 0.00 | 96 | 1014.0 |
| 20260510075314 | 73 | 212 | 0.9 | 0.9 | 0.00 | 0.00 | 0.00 | 96 | 1014.2 |
| 20260510074810 | 73 | 157 | 0.0 | 0.0 | 0.00 | 0.00 | 0.00 | 96 | 1014.3 |
| 20260510074308 | 73 | 185 | 1.7 | 1.7 | 0.00 | 0.00 | 0.00 | 97 | 1014.2 |
| 20260510073803 | 73 | 193 | 0.0 | 0.0 | 0.00 | 0.00 | 0.00 | 97 | 1014.1 |
| 20260510073259 | 73 | 181 | 0.9 | 0.9 | 0.00 | 0.00 | 0.00 | 97 | 1014.1 |
| 20260510072755 | 72 | 101 | 1.7 | 2.6 | 0.00 | 0.00 | 0.00 | 97 | 1014.4 |
| 20260510072252 | 72 | 186 | 0.0 | 0.0 | 0.00 | 0.00 | 0.00 | 97 | 1014.5 |
| 20260510071748 | 72 | 194 | 0.9 | 0.9 | 0.00 | 0.00 | 0.00 | 97 | 1014.4 |
| 20260510071245 | 72 | 161 | 0.9 | 1.7 | 0.00 | 0.00 | 0.00 | 97 | 1014.6 |
| 20260510070744 | 72 | 173 | 0.0 | 0.0 | 0.00 | 0.00 | 0.00 | 98 | 1014.5 |
| 20260510070241 | 72 | 197 | 0.0 | 0.0 | 0.00 | 0.00 | 0.00 | 98 | 1014.2 |
| 20260510065740 | 72 | 90 | 0.0 | 0.0 | 0.00 | 0.00 | 0.00 | 98 | 1014.6 |
| 20260510065238 | 71 | 42 | 0.0 | 0.0 | 0.00 | 0.00 | 0.00 | 98 | 1014.7 |
| 20260510064734 | 71 | 38 | 0.0 | 0.0 | 0.00 | 0.00 | 0.00 | 98 | 1014.6 |
| 20260510064232 | 72 | 38 | 0.0 | 0.0 | 0.00 | 0.00 | 0.00 | 98 | 1014.7 |
| 20260510063728 | 71 | 38 | 0.0 | 0.0 | 0.00 | 0.00 | 0.00 | 98 | 1014.8 |
| 20260510063224 | 71 | 38 | 0.0 | 0.0 | 0.00 | 0.00 | 0.00 | 98 | 1014.7 |
| 20260510062721 | 71 | 38 | 0.0 | 0.0 | 0.00 | 0.00 | 0.00 | 98 | 1014.7 |
| 20260510062217 | 71 | 38 | 0.0 | 0.0 | 0.00 | 0.00 | 0.00 | 97 | 1015.0 |
| 20260510061712 | 71 | 38 | 0.0 | 0.0 | 0.00 | 0.00 | 0.00 | 97 | 1015.2 |
| 20260510061210 | 71 | 38 | 0.0 | 0.0 | 0.00 | 0.00 | 0.00 | 97 | 1015.3 |
| 20260510060706 | 72 | 38 | 0.0 | 0.0 | 0.00 | 0.00 | 0.00 | 97 | 1015.3 |
| 20260510060203 | 72 | 38 | 0.0 | 0.0 | 0.00 | 0.00 | 0.00 | 97 | 1015.0 |
| 20260510055659 | 72 | 39 | 0.0 | 0.0 | 0.00 | 0.00 | 0.00 | 97 | 1015.1 |
| 20260510055157 | 72 | 168 | 0.0 | 0.0 | 0.00 | 0.00 | 0.00 | 97 | 1015.1 |
| 20260510054653 | 72 | 252 | 0.0 | 0.9 | 0.00 | 0.00 | 0.00 | 97 | 1015.2 |
| 20260510054149 | 72 | 243 | 0.9 | 0.9 | 0.00 | 0.00 | 0.00 | 97 | 1015.4 |
| 20260510053648 | 71 | 298 | 0.0 | 0.0 | 0.00 | 0.00 | 0.00 | 97 | 1015.3 |
| 20260510053145 | 71 | 275 | 0.0 | 0.0 | 0.00 | 0.00 | 0.00 | 97 | 1015.3 |
| 20260510052640 | 71 | 310 | 0.0 | 0.0 | 0.00 | 0.00 | 0.00 | 97 | 1015.4 |
| 20260510052137 | 71 | 310 | 0.0 | 0.0 | 0.00 | 0.00 | 0.00 | 97 | 1015.4 |
| 20260510051632 | 72 | 310 | 0.0 | 0.0 | 0.00 | 0.00 | 0.00 | 96 | 1015.7 |
| 20260510051129 | 72 | 310 | 0.0 | 0.0 | 0.00 | 0.00 | 0.00 | 96 | 1015.7 |
| 20260510050627 | 72 | 310 | 0.0 | 0.0 | 0.00 | 0.00 | 0.00 | 96 | 1015.7 |
| 20260510050124 | 71 | 309 | 0.0 | 0.0 | 0.00 | 0.00 | 0.00 | 96 | 1015.7 |
| 20260510045621 | 71 | 310 | 0.0 | 0.0 | 0.00 | 0.00 | 0.00 | 96 | 1015.7 |
| 20260510045117 | 72 | 311 | 0.0 | 0.0 | 0.00 | 0.00 | 0.00 | 96 | 1015.7 |
| 20260510044613 | 72 | 311 | 0.0 | 0.0 | 0.00 | 0.00 | 0.00 | 96 | 1015.7 |
| 20260510044111 | 72 | 268 | 0.0 | 0.0 | 0.00 | 0.00 | 0.00 | 96 | 1015.8 |
| 20260510043606 | 72 | 317 | 0.0 | 0.0 | 0.00 | 0.00 | 0.00 | 95 | 1015.6 |
| 20260510043102 | 72 | 336 | 0.0 | 0.9 | 0.00 | 0.00 | 0.00 | 96 | 1015.9 |
| 20260510042601 | 72 | 337 | 0.0 | 0.0 | 0.00 | 0.00 | 0.00 | 96 | 1015.8 |
| 20260510042056 | 72 | 338 | 0.0 | 0.0 | 0.00 | 0.00 | 0.00 | 95 | 1015.8 |
| 20260510041554 | 72 | 313 | 0.0 | 0.0 | 0.00 | 0.00 | 0.00 | 95 | 1015.9 |
| 20260510041051 | 72 | 313 | 0.0 | 0.9 | 0.00 | 0.00 | 0.00 | 95 | 1015.9 |
| 20260510040548 | 72 | 313 | 0.0 | 0.0 | 0.00 | 0.00 | 0.00 | 95 | 1015.8 |
| 20260510040044 | 72 | 313 | 0.0 | 0.0 | 0.00 | 0.00 | 0.00 | 95 | 1015.9 |
| 20260510035540 | 73 | 313 | 0.0 | 0.0 | 0.00 | 0.00 | 0.00 | 94 | 1016.0 |
| 20260510035040 | 73 | 313 | 0.0 | 0.9 | 0.00 | 0.00 | 0.00 | 94 | 1016.1 |
| 20260510034539 | 73 | 314 | 0.0 | 0.0 | 0.00 | 0.00 | 0.00 | 93 | 1015.9 |
| 20260510034035 | 73 | 314 | 0.0 | 0.0 | 0.00 | 0.00 | 0.00 | 93 | 1015.8 |
| 20260510033530 | 74 | 314 | 0.9 | 0.9 | 0.00 | 0.00 | 0.00 | 93 | 1015.8 |
| 20260510033029 | 74 | 259 | 0.0 | 0.0 | 0.00 | 0.00 | 0.00 | 92 | 1015.9 |
| 20260510032525 | 74 | 259 | 0.0 | 0.0 | 0.00 | 0.00 | 0.00 | 92 | 1015.8 |
| 20260510032020 | 74 | 258 | 0.0 | 0.9 | 0.00 | 0.00 | 0.00 | 91 | 1015.7 |
| 20260510031516 | 74 | 296 | 0.0 | 0.0 | 0.00 | 0.00 | 0.00 | 91 | 1015.5 |
| 20260510031012 | 74 | 163 | 0.0 | 0.9 | 0.00 | 0.00 | 0.00 | 91 | 1015.5 |
| 20260510030508 | 74 | 101 | 0.9 | 0.9 | 0.00 | 0.00 | 0.00 | 91 | 1015.6 |
| 20260510030005 | 74 | 101 | 0.0 | 0.0 | 0.00 | 0.00 | 0.00 | 90 | 1015.8 |
| 20260510025502 | 74 | 203 | 0.0 | 0.9 | 0.00 | 0.00 | 0.00 | 90 | 1015.6 |
| 20260510025000 | 75 | 203 | 0.0 | 0.0 | 0.00 | 0.00 | 0.00 | 89 | 1015.8 |
| 20260510024456 | 75 | 203 | 0.0 | 0.0 | 0.00 | 0.00 | 0.00 | 89 | 1015.8 |
| 20260510023952 | 75 | 204 | 0.0 | 0.0 | 0.00 | 0.00 | 0.00 | 88 | 1015.6 |
| 20260510023448 | 75 | 174 | 0.0 | 0.0 | 0.00 | 0.00 | 0.00 | 87 | 1015.6 |
| 20260510022945 | 75 | 166 | 0.0 | 0.0 | 0.00 | 0.00 | 0.00 | 87 | 1015.7 |
| 20260510022444 | 75 | 198 | 0.9 | 0.9 | 0.00 | 0.00 | 0.00 | 87 | 1015.6 |
| 20260510021943 | 76 | 160 | 0.9 | 0.9 | 0.00 | 0.00 | 0.00 | 85 | 1015.4 |
| 20260510021442 | 76 | 46 | 0.9 | 0.9 | 0.00 | 0.00 | 0.00 | 85 | 1015.6 |
| 20260510020939 | 76 | 42 | 0.0 | 0.0 | 0.00 | 0.00 | 0.00 | 85 | 1015.5 |
| 20260510020438 | 76 | 42 | 0.0 | 0.0 | 0.00 | 0.00 | 0.00 | 85 | 1015.5 |
| 20260510015934 | 77 | 16 | 0.0 | 0.9 | 0.00 | 0.00 | 0.00 | 85 | 1015.2 |
| 20260510015431 | 77 | 30 | 1.7 | 2.6 | 0.00 | 0.00 | 0.00 | 86 | 1015.5 |
| 20260510014925 | 77 | 58 | 0.9 | 1.7 | 0.00 | 0.00 | 0.00 | 86 | 1015.3 |
| 20260510014423 | 77 | 26 | 1.7 | 1.7 | 0.00 | 0.00 | 0.00 | 86 | 1015.1 |
| 20260510013920 | 77 | 25 | 1.7 | 1.7 | 0.00 | 0.00 | 0.00 | 86 | 1015.2 |
| 20260510013415 | 77 | 74 | 1.7 | 2.6 | 0.00 | 0.00 | 0.00 | 86 | 1015.0 |
| 20260510012910 | 77 | 48 | 0.0 | 0.9 | 0.00 | 0.00 | 0.00 | 86 | 1015.0 |
| 20260510012406 | 77 | 43 | 0.9 | 0.9 | 0.00 | 0.00 | 0.00 | 86 | 1014.9 |
| 20260510011900 | 77 | 328 | 0.9 | 0.9 | 0.00 | 0.00 | 0.00 | 86 | 1015.2 |
| 20260510011355 | 78 | 28 | 4.3 | 6.1 | 0.00 | 0.00 | 0.00 | 86 | 1015.0 |
| 20260510010852 | 78 | 36 | 2.6 | 2.6 | 0.00 | 0.00 | 0.00 | 86 | 1015.3 |
| 20260510010350 | 78 | 21 | 2.6 | 2.6 | 0.00 | 0.00 | 0.00 | 86 | 1015.2 |
| 20260510005846 | 78 | 60 | 3.5 | 5.2 | 0.00 | 0.00 | 0.00 | 86 | 1015.0 |
| 20260510005342 | 78 | 14 | 1.7 | 2.6 | 0.00 | 0.00 | 0.00 | 86 | 1015.0 |
| 20260510004840 | 78 | 58 | 2.6 | 3.5 | 0.00 | 0.00 | 0.00 | 86 | 1014.8 |
| 20260510004337 | 78 | 44 | 2.6 | 2.6 | 0.00 | 0.00 | 0.00 | 86 | 1014.6 |
| 20260510003835 | 78 | 15 | 2.6 | 3.5 | 0.00 | 0.00 | 0.00 | 86 | 1014.7 |
| 20260510003332 | 78 | 82 | 3.5 | 3.5 | 0.00 | 0.00 | 0.00 | 86 | 1014.7 |
| 20260510002830 | 78 | 24 | 1.7 | 2.6 | 0.00 | 0.00 | 0.00 | 86 | 1014.4 |
| 20260510002328 | 78 | 58 | 2.6 | 3.5 | 0.00 | 0.00 | 0.00 | 86 | 1014.0 |
| 20260510001824 | 78 | 29 | 0.9 | 1.7 | 0.00 | 0.00 | 0.00 | 86 | 1014.1 |
| 20260510001323 | 78 | 14 | 0.9 | 1.7 | 0.00 | 0.00 | 0.00 | 86 | 1014.2 |
| 20260510000818 | 78 | 11 | 1.7 | 1.7 | 0.00 | 0.00 | 0.00 | 85 | 1014.1 |
| 20260510000318 | 78 | 51 | 2.6 | 2.6 | 0.00 | 0.00 | 0.00 | 85 | 1014.0 |
| 20260509235813 | 78 | 51 | 1.7 | 1.7 | 0.00 | 0.00 | 0.00 | 85 | 1013.9 |
| 20260509235309 | 78 | 24 | 3.5 | 3.5 | 0.00 | 0.00 | 0.00 | 85 | 1014.0 |
| 20260509234805 | 78 | 76 | 2.6 | 2.6 | 0.00 | 0.00 | 0.00 | 85 | 1014.0 |
| 20260509234302 | 79 | 83 | 2.6 | 3.5 | 0.00 | 0.00 | 0.00 | 85 | 1014.0 |
| 20260509233800 | 79 | 39 | 2.6 | 3.5 | 0.00 | 0.00 | 0.00 | 84 | 1013.8 |
| 20260509233257 | 79 | 18 | 4.3 | 5.2 | 0.00 | 0.00 | 0.00 | 84 | 1013.9 |
| 20260509232753 | 79 | 38 | 4.3 | 5.2 | 0.00 | 0.00 | 0.00 | 84 | 1013.6 |
| 20260509232251 | 79 | 47 | 2.6 | 3.5 | 0.00 | 0.00 | 0.00 | 84 | 1013.5 |
| 20260509231747 | 79 | 36 | 4.3 | 5.2 | 0.00 | 0.00 | 0.00 | 83 | 1013.5 |
| 20260509231244 | 79 | 9 | 1.7 | 1.7 | 0.00 | 0.00 | 0.00 | 83 | 1013.7 |
| 20260509230742 | 79 | 13 | 6.1 | 7.8 | 0.00 | 0.00 | 0.00 | 83 | 1013.7 |
| 20260509230238 | 79 | 59 | 5.2 | 6.1 | 0.00 | 0.00 | 0.00 | 82 | 1013.6 |
| 20260509225733 | 80 | 22 | 4.3 | 5.2 | 0.00 | 0.00 | 0.00 | 82 | 1013.3 |
| 20260509225230 | 80 | 33 | 5.2 | 6.1 | 0.00 | 0.00 | 0.00 | 80 | 1013.5 |
| 20260509224725 | 80 | 35 | 3.5 | 3.5 | 0.00 | 0.00 | 0.00 | 81 | 1013.2 |
| 20260509224223 | 81 | 43 | 7.0 | 8.7 | 0.00 | 0.00 | 0.00 | 80 | 1013.2 |
| 20260509223720 | 81 | 80 | 3.5 | 3.5 | 0.00 | 0.00 | 0.00 | 80 | 1013.1 |
| 20260509223217 | 82 | 31 | 7.0 | 7.0 | 0.00 | 0.00 | 0.00 | 79 | 1013.0 |
| 20260509222714 | 82 | 43 | 6.1 | 7.8 | 0.00 | 0.00 | 0.00 | 78 | 1012.8 |
| 20260509222209 | 83 | 46 | 5.2 | 7.0 | 0.00 | 0.00 | 0.00 | 76 | 1013.0 |
| 20260509221705 | 84 | 34 | 8.7 | 12.2 | 0.00 | 0.00 | 0.00 | 73 | 1012.8 |
| 20260509221201 | 85 | 57 | 7.8 | 8.7 | 0.00 | 0.00 | 0.00 | 70 | 1012.6 |
| 20260509220657 | 86 | 17 | 3.5 | 7.0 | 0.00 | 0.00 | 0.00 | 65 | 1012.6 |